sensor_id;sensor_type;location;lat;lon;timestamp;pressure;altitude;pressure_sealevel;temperature;humidity
30463;BME280;17256;43.618;25.336;2023-06-10T00:01:05;99699.00;;;17.26;69.99
30463;BME280;17256;43.618;25.336;2023-06-10T00:05:08;100104.91;;;19.69;71.07
30463;BME280;17256;43.618;25.336;2023-06-10T00:09:00;100109.34;;;19.64;71.46
30463;BME280;17256;43.618;25.336;2023-06-10T00:12:19;100110.75;;;19.62;70.88
30463;BME280;17256;43.618;25.336;2023-06-10T00:16:31;100110.13;;;19.55;71.89
30463;BME280;17256;43.618;25.336;2023-06-10T00:20:09;100110.97;;;19.55;71.14
30463;BME280;17256;43.618;25.336;2023-06-10T00:23:21;99737.94;;;17.36;70.90
30463;BME280;17256;43.618;25.336;2023-06-10T00:26:11;99750.63;;;17.27;71.65
30463;BME280;17256;43.618;25.336;2023-06-10T00:29:34;99917.66;;;18.41;71.31
30463;BME280;17256;43.618;25.336;2023-06-10T00:33:14;99910.41;;;18.35;71.59
30463;BME280;17256;43.618;25.336;2023-06-10T00:37:08;100112.13;;;19.59;71.54
30463;BME280;17256;43.618;25.336;2023-06-10T00:40:07;100003.13;;;18.93;71.79
30463;BME280;17256;43.618;25.336;2023-06-10T00:43:44;99769.34;;;17.41;71.52
30463;BME280;17256;43.618;25.336;2023-06-10T00:51:18;99840.56;;;17.85;74.23
30463;BME280;17256;43.618;25.336;2023-06-10T00:54:20;99694.00;;;16.90;74.79
30463;BME280;17256;43.618;25.336;2023-06-10T00:58:02;99807.25;;;17.31;80.03
30463;BME280;17256;43.618;25.336;2023-06-10T01:04:47;99881.22;;;17.69;86.59
30463;BME280;17256;43.618;25.336;2023-06-10T01:12:55;99957.19;;;17.36;100.00
30463;BME280;17256;43.618;25.336;2023-06-10T01:16:47;99718.44;;;15.84;100.00
30463;BME280;17256;43.618;25.336;2023-06-10T01:20:05;99982.09;;;17.09;100.00
30463;BME280;17256;43.618;25.336;2023-06-10T01:22:54;99851.69;;;16.43;100.00
30463;BME280;17256;43.618;25.336;2023-06-10T01:26:26;100118.22;;;18.28;100.00
30463;BME280;17256;43.618;25.336;2023-06-10T01:29:58;100121.81;;;18.24;100.00
30463;BME280;17256;43.618;25.336;2023-06-10T01:33:53;99881.41;;;16.86;100.00
30463;BME280;17256;43.618;25.336;2023-06-10T01:37:13;99911.13;;;17.13;100.00
30463;BME280;17256;43.618;25.336;2023-06-10T01:40:14;100115.09;;;18.47;99.81
30463;BME280;17256;43.618;25.336;2023-06-10T01:43:44;99763.91;;;16.27;98.54
30463;BME280;17256;43.618;25.336;2023-06-10T01:46:41;99978.19;;;17.75;97.55
30463;BME280;17256;43.618;25.336;2023-06-10T01:50:10;100017.31;;;17.96;96.10
30463;BME280;17256;43.618;25.336;2023-06-10T01:54:17;99771.53;;;16.37;97.15
30463;BME280;17256;43.618;25.336;2023-06-10T01:57:38;99704.19;;;16.14;96.93
30463;BME280;17256;43.618;25.336;2023-06-10T02:01:20;99929.06;;;17.54;96.60
30463;BME280;17256;43.618;25.336;2023-06-10T02:04:20;100114.22;;;18.68;97.06
30463;BME280;17256;43.618;25.336;2023-06-10T02:08:01;100063.44;;;18.24;94.95
30463;BME280;17256;43.618;25.336;2023-06-10T02:11:38;100112.97;;;18.59;97.53
30463;BME280;17256;43.618;25.336;2023-06-10T02:18:20;99797.72;;;16.68;94.29
30463;BME280;17256;43.618;25.336;2023-06-10T02:21:45;99757.91;;;16.35;92.72
30463;BME280;17256;43.618;25.336;2023-06-10T02:24:35;99985.91;;;17.95;92.40
30463;BME280;17256;43.618;25.336;2023-06-10T02:27:47;99807.44;;;16.92;90.45
30463;BME280;17256;43.618;25.336;2023-06-10T02:31:17;99735.41;;;16.53;87.77
30463;BME280;17256;43.618;25.336;2023-06-10T02:34:34;99998.75;;;18.01;87.56
30463;BME280;17256;43.618;25.336;2023-06-10T02:37:34;99724.91;;;16.55;87.47
30463;BME280;17256;43.618;25.336;2023-06-10T02:41:06;99920.56;;;17.61;89.19
30463;BME280;17256;43.618;25.336;2023-06-10T02:48:26;99726.34;;;16.36;92.08
30463;BME280;17256;43.618;25.336;2023-06-10T02:51:39;99773.88;;;16.67;97.88
30463;BME280;17256;43.618;25.336;2023-06-10T02:55:10;99961.03;;;17.57;100.00
30463;BME280;17256;43.618;25.336;2023-06-10T02:58:28;100114.88;;;18.53;100.00
30463;BME280;17256;43.618;25.336;2023-06-10T03:02:27;99716.88;;;15.88;100.00
30463;BME280;17256;43.618;25.336;2023-06-10T03:06:02;100115.44;;;18.28;100.00
30463;BME280;17256;43.618;25.336;2023-06-10T03:09:46;99845.50;;;16.36;100.00
30463;BME280;17256;43.618;25.336;2023-06-10T03:13:45;100128.09;;;18.14;100.00
30463;BME280;17256;43.618;25.336;2023-06-10T03:16:58;100139.78;;;18.16;100.00
30463;BME280;17256;43.618;25.336;2023-06-10T03:19:57;99886.88;;;16.81;100.00
30463;BME280;17256;43.618;25.336;2023-06-10T03:23:59;99747.59;;;16.09;100.00
30463;BME280;17256;43.618;25.336;2023-06-10T03:26:55;99906.22;;;17.20;100.00
30463;BME280;17256;43.618;25.336;2023-06-10T03:29:32;100038.13;;;18.20;100.00
30463;BME280;17256;43.618;25.336;2023-06-10T03:32:49;100008.72;;;17.97;100.00
30463;BME280;17256;43.618;25.336;2023-06-10T03:36:14;100022.28;;;18.21;100.00
30463;BME280;17256;43.618;25.336;2023-06-10T03:43:51;99997.47;;;18.46;95.29
30463;BME280;17256;43.618;25.336;2023-06-10T03:47:22;99870.38;;;17.99;92.67
30463;BME280;17256;43.618;25.336;2023-06-10T03:50:36;100115.47;;;19.61;91.92
30463;BME280;17256;43.618;25.336;2023-06-10T03:53:33;100134.16;;;19.71;88.90
30463;BME280;17256;43.618;25.336;2023-06-10T03:56:33;99872.31;;;18.36;87.88
30463;BME280;17256;43.618;25.336;2023-06-10T03:59:53;99882.66;;;18.45;88.28
30463;BME280;17256;43.618;25.336;2023-06-10T04:02:43;99734.53;;;16.97;100.00
30463;BME280;17256;43.618;25.336;2023-06-10T04:05:24;99780.41;;;16.82;100.00
30463;BME280;17256;43.618;25.336;2023-06-10T04:07:58;100127.03;;;18.69;100.00
30463;BME280;17256;43.618;25.336;2023-06-10T04:10:29;99883.34;;;16.86;100.00
30463;BME280;17256;43.618;25.336;2023-06-10T04:13:03;99743.47;;;15.89;100.00
30463;BME280;17256;43.618;25.336;2023-06-10T04:15:39;99775.03;;;16.10;100.00
30463;BME280;17256;43.618;25.336;2023-06-10T04:18:11;100043.63;;;17.88;100.00
30463;BME280;17256;43.618;25.336;2023-06-10T04:20:41;99788.38;;;16.57;100.00
30463;BME280;17256;43.618;25.336;2023-06-10T04:23:09;99853.69;;;17.35;100.00
30463;BME280;17256;43.618;25.336;2023-06-10T04:25:39;99915.06;;;17.66;100.00
30463;BME280;17256;43.618;25.336;2023-06-10T04:28:07;99916.16;;;17.65;100.00
30463;BME280;17256;43.618;25.336;2023-06-10T04:30:34;100018.03;;;18.45;100.00
30463;BME280;17256;43.618;25.336;2023-06-10T04:33:03;100133.63;;;19.32;100.00
30463;BME280;17256;43.618;25.336;2023-06-10T04:35:31;99908.78;;;18.07;100.00
30463;BME280;17256;43.618;25.336;2023-06-10T04:38:23;99961.31;;;18.41;100.00
30463;BME280;17256;43.618;25.336;2023-06-10T04:40:50;99923.13;;;17.94;100.00
30463;BME280;17256;43.618;25.336;2023-06-10T04:43:22;99772.91;;;16.83;100.00
30463;BME280;17256;43.618;25.336;2023-06-10T04:45:57;99811.09;;;16.98;100.00
30463;BME280;17256;43.618;25.336;2023-06-10T04:48:32;99896.81;;;17.48;100.00
30463;BME280;17256;43.618;25.336;2023-06-10T04:51:07;99947.25;;;17.89;100.00
30463;BME280;17256;43.618;25.336;2023-06-10T04:53:38;100050.75;;;19.02;100.00
30463;BME280;17256;43.618;25.336;2023-06-10T04:56:08;99872.91;;;18.06;100.00
30463;BME280;17256;43.618;25.336;2023-06-10T04:58:38;100071.84;;;19.35;100.00
30463;BME280;17256;43.618;25.336;2023-06-10T05:01:12;100039.56;;;19.34;100.00
30463;BME280;17256;43.618;25.336;2023-06-10T05:03:39;99939.88;;;18.79;100.00
30463;BME280;17256;43.618;25.336;2023-06-10T05:06:14;99792.88;;;18.03;100.00
30463;BME280;17256;43.618;25.336;2023-06-10T05:08:44;99992.72;;;19.26;100.00
30463;BME280;17256;43.618;25.336;2023-06-10T05:11:19;100183.84;;;20.47;100.00
30463;BME280;17256;43.618;25.336;2023-06-10T05:13:45;99937.75;;;18.91;100.00
30463;BME280;17256;43.618;25.336;2023-06-10T05:16:20;100178.81;;;20.44;100.00
30463;BME280;17256;43.618;25.336;2023-06-10T05:18:47;99949.81;;;19.12;99.77
30463;BME280;17256;43.618;25.336;2023-06-10T05:21:26;99949.81;;;19.12;100.00
30463;BME280;17256;43.618;25.336;2023-06-10T05:23:54;100067.09;;;19.83;99.53
30463;BME280;17256;43.618;25.336;2023-06-10T05:26:24;99872.09;;;18.48;100.00
30463;BME280;17256;43.618;25.336;2023-06-10T05:28:52;99843.34;;;18.27;100.00
30463;BME280;17256;43.618;25.336;2023-06-10T05:31:24;100062.31;;;19.73;100.00
30463;BME280;17256;43.618;25.336;2023-06-10T05:33:53;100027.47;;;19.65;100.00
30463;BME280;17256;43.618;25.336;2023-06-10T05:36:19;99938.41;;;19.13;100.00
30463;BME280;17256;43.618;25.336;2023-06-10T05:38:46;99876.00;;;18.52;100.00
30463;BME280;17256;43.618;25.336;2023-06-10T05:41:18;100197.28;;;20.75;100.00
30463;BME280;17256;43.618;25.336;2023-06-10T05:43:47;99892.41;;;19.00;100.00
30463;BME280;17256;43.618;25.336;2023-06-10T05:46:14;100199.28;;;21.00;99.54
30463;BME280;17256;43.618;25.336;2023-06-10T05:48:52;99959.50;;;19.66;98.18
30463;BME280;17256;43.618;25.336;2023-06-10T05:51:23;100065.56;;;20.43;99.25
30463;BME280;17256;43.618;25.336;2023-06-10T05:53:58;99867.16;;;19.22;97.04
30463;BME280;17256;43.618;25.336;2023-06-10T05:56:54;100005.28;;;20.32;97.23
30463;BME280;17256;43.618;25.336;2023-06-10T05:59:24;99912.19;;;19.87;97.75
30463;BME280;17256;43.618;25.336;2023-06-10T06:02:05;100066.97;;;20.71;93.01
30463;BME280;17256;43.618;25.336;2023-06-10T06:04:39;99957.91;;;20.11;93.69
30463;BME280;17256;43.618;25.336;2023-06-10T06:07:10;99836.66;;;19.68;91.70
30463;BME280;17256;43.618;25.336;2023-06-10T06:09:38;99970.72;;;20.53;89.16
30463;BME280;17256;43.618;25.336;2023-06-10T06:12:30;100112.16;;;21.39;89.16
30463;BME280;17256;43.618;25.336;2023-06-10T06:14:56;100035.72;;;20.79;90.31
30463;BME280;17256;43.618;25.336;2023-06-10T06:17:25;99815.19;;;19.79;88.73
30463;BME280;17256;43.618;25.336;2023-06-10T06:20:07;100157.59;;;21.75;90.08
30463;BME280;17256;43.618;25.336;2023-06-10T06:22:37;99964.25;;;20.93;90.58
30463;BME280;17256;43.618;25.336;2023-06-10T06:25:07;99960.66;;;20.87;89.24
30463;BME280;17256;43.618;25.336;2023-06-10T06:28:06;99892.66;;;20.33;92.81
30463;BME280;17256;43.618;25.336;2023-06-10T06:30:45;99979.91;;;20.89;94.20
30463;BME280;17256;43.618;25.336;2023-06-10T06:33:16;99963.72;;;20.81;93.67
30463;BME280;17256;43.618;25.336;2023-06-10T06:35:53;99851.44;;;19.84;95.20
30463;BME280;17256;43.618;25.336;2023-06-10T06:38:28;99885.41;;;20.42;95.50
30463;BME280;17256;43.618;25.336;2023-06-10T06:40:59;100022.56;;;21.05;98.33
30463;BME280;17256;43.618;25.336;2023-06-10T06:44:01;100168.16;;;21.98;97.29
30463;BME280;17256;43.618;25.336;2023-06-10T06:46:45;99782.34;;;19.86;98.35
30463;BME280;17256;43.618;25.336;2023-06-10T06:49:47;100043.00;;;21.75;97.57
30463;BME280;17256;43.618;25.336;2023-06-10T06:52:47;99978.66;;;21.36;95.30
30463;BME280;17256;43.618;25.336;2023-06-10T06:59:26;99890.72;;;21.23;94.46
30463;BME280;17256;43.618;25.336;2023-06-10T07:03:05;100154.19;;;22.97;89.16
30463;BME280;17256;43.618;25.336;2023-06-10T07:06:10;100159.00;;;23.25;89.68
30463;BME280;17256;43.618;25.336;2023-06-10T07:09:15;100030.53;;;22.51;86.52
30463;BME280;17256;43.618;25.336;2023-06-10T07:11:54;99963.00;;;22.28;85.00
30463;BME280;17256;43.618;25.336;2023-06-10T07:14:24;100010.97;;;22.85;86.73
30463;BME280;17256;43.618;25.336;2023-06-10T07:16:52;100122.88;;;24.01;87.60
30463;BME280;17256;43.618;25.336;2023-06-10T07:19:19;100082.09;;;23.66;82.57
30463;BME280;17256;43.618;25.336;2023-06-10T07:21:53;99914.59;;;22.91;79.39
30463;BME280;17256;43.618;25.336;2023-06-10T07:24:47;100013.53;;;23.53;74.43
30463;BME280;17256;43.618;25.336;2023-06-10T07:27:23;99717.66;;;21.81;74.98
30463;BME280;17256;43.618;25.336;2023-06-10T07:30:16;99929.53;;;23.48;76.38
30463;BME280;17256;43.618;25.336;2023-06-10T07:32:46;99784.31;;;22.27;70.20
30463;BME280;17256;43.618;25.336;2023-06-10T07:35:25;99787.34;;;22.30;67.14
30463;BME280;17256;43.618;25.336;2023-06-10T07:37:55;99924.81;;;23.00;71.93
30463;BME280;17256;43.618;25.336;2023-06-10T07:40:52;99905.84;;;22.68;77.23
30463;BME280;17256;43.618;25.336;2023-06-10T07:43:24;99969.75;;;23.14;77.42
30463;BME280;17256;43.618;25.336;2023-06-10T07:45:55;100008.75;;;23.58;74.98
30463;BME280;17256;43.618;25.336;2023-06-10T07:48:26;99720.31;;;21.96;75.75
30463;BME280;17256;43.618;25.336;2023-06-10T07:50:55;99963.00;;;23.63;70.74
30463;BME280;17256;43.618;25.336;2023-06-10T07:53:45;100033.91;;;24.06;70.94
30463;BME280;17256;43.618;25.336;2023-06-10T07:56:35;99875.13;;;23.11;71.69
30463;BME280;17256;43.618;25.336;2023-06-10T07:59:13;99928.88;;;23.13;72.79
30463;BME280;17256;43.618;25.336;2023-06-10T08:01:50;100086.09;;;23.83;74.21
30463;BME280;17256;43.618;25.336;2023-06-10T08:04:35;100091.16;;;24.05;73.80
30463;BME280;17256;43.618;25.336;2023-06-10T08:07:05;99956.56;;;23.62;76.41
30463;BME280;17256;43.618;25.336;2023-06-10T08:09:37;100002.50;;;24.23;74.39
30463;BME280;17256;43.618;25.336;2023-06-10T08:12:15;100055.91;;;24.56;74.82
30463;BME280;17256;43.618;25.336;2023-06-10T08:15:07;99990.53;;;24.55;75.52
30463;BME280;17256;43.618;25.336;2023-06-10T08:17:34;100174.66;;;26.05;72.68
30463;BME280;17256;43.618;25.336;2023-06-10T08:20:30;99867.81;;;24.23;75.66
30463;BME280;17256;43.618;25.336;2023-06-10T08:22:56;99879.44;;;24.49;72.89
30463;BME280;17256;43.618;25.336;2023-06-10T08:25:52;100098.75;;;26.00;74.61
30463;BME280;17256;43.618;25.336;2023-06-10T08:28:44;99989.69;;;25.01;72.63
30463;BME280;17256;43.618;25.336;2023-06-10T08:31:26;99818.50;;;23.89;74.92
30463;BME280;17256;43.618;25.336;2023-06-10T08:34:22;100180.25;;;25.91;77.23
30463;BME280;17256;43.618;25.336;2023-06-10T08:37:18;99846.56;;;24.03;78.02
30463;BME280;17256;43.618;25.336;2023-06-10T08:39:55;99926.31;;;24.35;78.93
30463;BME280;17256;43.618;25.336;2023-06-10T08:43:07;100174.13;;;26.03;78.40
30463;BME280;17256;43.618;25.336;2023-06-10T08:45:48;99912.91;;;24.13;79.14
30463;BME280;17256;43.618;25.336;2023-06-10T08:48:19;100023.47;;;24.82;80.24
30463;BME280;17256;43.618;25.336;2023-06-10T08:50:49;99850.63;;;23.41;80.43
30463;BME280;17256;43.618;25.336;2023-06-10T08:53:24;100171.91;;;25.40;81.12
30463;BME280;17256;43.618;25.336;2023-06-10T08:55:51;99922.91;;;24.51;83.72
30463;BME280;17256;43.618;25.336;2023-06-10T08:58:25;100166.31;;;26.27;77.51
30463;BME280;17256;43.618;25.336;2023-06-10T09:00:55;99813.44;;;23.73;78.74
30463;BME280;17256;43.618;25.336;2023-06-10T09:03:40;99794.81;;;24.28;75.79
30463;BME280;17256;43.618;25.336;2023-06-10T09:06:52;100046.06;;;26.05;75.33
30463;BME280;17256;43.618;25.336;2023-06-10T09:09:49;99920.81;;;25.44;72.57
30463;BME280;17256;43.618;25.336;2023-06-10T09:12:28;99788.72;;;24.40;72.98
30463;BME280;17256;43.618;25.336;2023-06-10T09:15:16;100163.88;;;26.21;76.46
30463;BME280;17256;43.618;25.336;2023-06-10T09:17:48;99979.09;;;25.53;74.87
30463;BME280;17256;43.618;25.336;2023-06-10T09:20:38;100003.16;;;25.86;73.85
30463;BME280;17256;43.618;25.336;2023-06-10T09:23:15;99904.56;;;24.87;73.14
30463;BME280;17256;43.618;25.336;2023-06-10T09:25:46;99963.41;;;25.38;74.37
30463;BME280;17256;43.618;25.336;2023-06-10T09:28:49;100017.50;;;25.98;74.98
30463;BME280;17256;43.618;25.336;2023-06-10T09:31:18;100071.38;;;26.05;74.16
30463;BME280;17256;43.618;25.336;2023-06-10T09:34:26;99943.91;;;25.28;74.68
30463;BME280;17256;43.618;25.336;2023-06-10T09:37:08;99853.25;;;24.53;75.32
30463;BME280;17256;43.618;25.336;2023-06-10T09:40:08;100027.19;;;25.51;74.65
30463;BME280;17256;43.618;25.336;2023-06-10T09:42:41;99963.91;;;25.26;75.71
30463;BME280;17256;43.618;25.336;2023-06-10T09:45:36;100133.56;;;27.26;72.10
30463;BME280;17256;43.618;25.336;2023-06-10T09:48:21;99896.72;;;25.52;72.22
30463;BME280;17256;43.618;25.336;2023-06-10T09:51:32;99775.41;;;24.45;73.58
30463;BME280;17256;43.618;25.336;2023-06-10T09:54:02;99980.63;;;26.22;72.79
30463;BME280;17256;43.618;25.336;2023-06-10T09:56:51;100134.41;;;27.57;70.58
30463;BME280;17256;43.618;25.336;2023-06-10T09:59:55;99898.84;;;26.41;67.99
30463;BME280;17256;43.618;25.336;2023-06-10T10:02:53;99996.88;;;27.15;66.46
30463;BME280;17256;43.618;25.336;2023-06-10T10:05:22;100044.47;;;27.96;65.93
30463;BME280;17256;43.618;25.336;2023-06-10T10:07:51;99890.84;;;27.45;59.23
30463;BME280;17256;43.618;25.336;2023-06-10T10:10:33;99788.41;;;26.92;57.64
30463;BME280;17256;43.618;25.336;2023-06-10T10:13:06;100002.53;;;28.29;57.48
30463;BME280;17256;43.618;25.336;2023-06-10T10:15:35;100024.91;;;28.16;56.05
30463;BME280;17256;43.618;25.336;2023-06-10T10:18:09;99993.56;;;28.27;54.68
30463;BME280;17256;43.618;25.336;2023-06-10T10:20:43;99988.19;;;28.16;56.97
30463;BME280;17256;43.618;25.336;2023-06-10T10:23:14;100039.22;;;28.80;57.33
30463;BME280;17256;43.618;25.336;2023-06-10T10:25:42;100020.78;;;28.40;57.74
30463;BME280;17256;43.618;25.336;2023-06-10T10:28:12;100104.06;;;28.77;57.03
30463;BME280;17256;43.618;25.336;2023-06-10T10:30:44;100117.94;;;29.51;56.02
30463;BME280;17256;43.618;25.336;2023-06-10T10:33:33;100104.72;;;29.08;54.99
30463;BME280;17256;43.618;25.336;2023-06-10T10:36:03;99994.06;;;28.29;54.56
30463;BME280;17256;43.618;25.336;2023-06-10T10:38:30;100007.66;;;28.44;56.94
30463;BME280;17256;43.618;25.336;2023-06-10T10:40:57;99965.34;;;28.27;56.04
30463;BME280;17256;43.618;25.336;2023-06-10T10:43:26;99898.38;;;27.67;57.70
30463;BME280;17256;43.618;25.336;2023-06-10T10:46:08;100010.47;;;28.61;57.57
30463;BME280;17256;43.618;25.336;2023-06-10T10:48:38;100101.56;;;29.65;56.53
30463;BME280;17256;43.618;25.336;2023-06-10T10:51:03;100025.47;;;29.34;55.35
30463;BME280;17256;43.618;25.336;2023-06-10T10:53:30;100089.09;;;29.66;56.86
30463;BME280;17256;43.618;25.336;2023-06-10T10:56:15;99901.69;;;28.38;56.56
30463;BME280;17256;43.618;25.336;2023-06-10T10:59:03;99999.19;;;28.61;56.43
30463;BME280;17256;43.618;25.336;2023-06-10T11:01:40;99863.69;;;27.75;55.79
30463;BME280;17256;43.618;25.336;2023-06-10T11:04:07;100086.63;;;29.56;54.39
30463;BME280;17256;43.618;25.336;2023-06-10T11:06:34;99932.94;;;28.33;53.65
30463;BME280;17256;43.618;25.336;2023-06-10T11:09:00;100084.72;;;29.78;54.51
30463;BME280;17256;43.618;25.336;2023-06-10T11:11:27;100082.50;;;29.36;52.74
30463;BME280;17256;43.618;25.336;2023-06-10T11:14:05;100076.44;;;29.64;54.85
30463;BME280;17256;43.618;25.336;2023-06-10T11:16:42;100045.88;;;29.40;54.10
30463;BME280;17256;43.618;25.336;2023-06-10T11:19:08;99902.53;;;27.78;56.09
30463;BME280;17256;43.618;25.336;2023-06-10T11:21:59;100064.75;;;29.19;56.66
30463;BME280;17256;43.618;25.336;2023-06-10T11:24:25;100040.03;;;29.07;55.82
30463;BME280;17256;43.618;25.336;2023-06-10T11:26:52;100014.13;;;28.88;56.65
30463;BME280;17256;43.618;25.336;2023-06-10T11:29:18;99846.44;;;27.85;54.91
30463;BME280;17256;43.618;25.336;2023-06-10T11:31:49;100050.47;;;29.15;56.64
30463;BME280;17256;43.618;25.336;2023-06-10T11:34:15;99979.22;;;28.66;55.55
30463;BME280;17256;43.618;25.336;2023-06-10T11:36:46;100040.28;;;29.31;54.64
30463;BME280;17256;43.618;25.336;2023-06-10T11:39:12;100050.81;;;29.14;53.47
30463;BME280;17256;43.618;25.336;2023-06-10T11:41:39;99919.47;;;28.30;52.95
30463;BME280;17256;43.618;25.336;2023-06-10T11:44:10;100039.06;;;29.41;53.22
30463;BME280;17256;43.618;25.336;2023-06-10T11:46:36;100034.81;;;29.26;52.43
30463;BME280;17256;43.618;25.336;2023-06-10T11:49:03;99967.00;;;29.09;50.99
30463;BME280;17256;43.618;25.336;2023-06-10T11:51:32;100024.78;;;29.37;48.31
30463;BME280;17256;43.618;25.336;2023-06-10T11:53:58;100025.50;;;29.17;50.52
30463;BME280;17256;43.618;25.336;2023-06-10T11:56:28;99953.59;;;28.89;48.83
30463;BME280;17256;43.618;25.336;2023-06-10T11:59:21;100010.75;;;29.58;48.94
30463;BME280;17256;43.618;25.336;2023-06-10T12:01:52;99943.22;;;29.48;49.94
30463;BME280;17256;43.618;25.336;2023-06-10T12:04:17;100001.69;;;29.94;49.04
30463;BME280;17256;43.618;25.336;2023-06-10T12:06:51;99952.63;;;29.61;44.77
30463;BME280;17256;43.618;25.336;2023-06-10T12:09:22;99855.38;;;29.15;46.00
30463;BME280;17256;43.618;25.336;2023-06-10T12:11:50;100013.75;;;30.54;43.69
30463;BME280;17256;43.618;25.336;2023-06-10T12:14:52;100011.63;;;30.30;42.65
30463;BME280;17256;43.618;25.336;2023-06-10T12:17:24;99939.72;;;29.42;42.97
30463;BME280;17256;43.618;25.336;2023-06-10T12:19:50;99929.44;;;29.67;44.45
30463;BME280;17256;43.618;25.336;2023-06-10T12:22:16;99964.88;;;30.24;45.38
30463;BME280;17256;43.618;25.336;2023-06-10T12:25:01;99979.13;;;30.48;44.99
30463;BME280;17256;43.618;25.336;2023-06-10T12:27:28;99983.94;;;30.69;46.64
30463;BME280;17256;43.618;25.336;2023-06-10T12:30:08;99977.88;;;30.79;44.76
30463;BME280;17256;43.618;25.336;2023-06-10T12:32:35;99914.06;;;30.40;45.00
30463;BME280;17256;43.618;25.336;2023-06-10T12:35:05;99924.09;;;30.70;45.51
30463;BME280;17256;43.618;25.336;2023-06-10T12:37:31;99953.66;;;30.93;44.70
30463;BME280;17256;43.618;25.336;2023-06-10T12:40:04;99996.13;;;31.14;45.54
30463;BME280;17256;43.618;25.336;2023-06-10T12:42:31;99992.28;;;31.68;44.49
30463;BME280;17256;43.618;25.336;2023-06-10T12:44:59;99953.75;;;31.42;44.36
30463;BME280;17256;43.618;25.336;2023-06-10T12:47:33;99995.13;;;31.92;45.28
30463;BME280;17256;43.618;25.336;2023-06-10T12:50:01;99985.69;;;31.51;43.20
30463;BME280;17256;43.618;25.336;2023-06-10T12:52:28;99828.94;;;30.24;43.64
30463;BME280;17256;43.618;25.336;2023-06-10T12:54:54;99960.97;;;31.40;43.16
30463;BME280;17256;43.618;25.336;2023-06-10T12:57:21;99972.97;;;31.12;44.50
30463;BME280;17256;43.618;25.336;2023-06-10T12:59:46;99894.44;;;30.35;43.80
30463;BME280;17256;43.618;25.336;2023-06-10T13:02:18;99956.22;;;31.19;43.46
30463;BME280;17256;43.618;25.336;2023-06-10T13:04:45;99962.84;;;31.36;43.86
30463;BME280;17256;43.618;25.336;2023-06-10T13:07:11;99888.34;;;30.78;43.61
30463;BME280;17256;43.618;25.336;2023-06-10T13:09:37;99976.31;;;31.39;42.45
30463;BME280;17256;43.618;25.336;2023-06-10T13:12:03;99896.25;;;30.84;42.19
30463;BME280;17256;43.618;25.336;2023-06-10T13:14:28;99928.19;;;31.06;40.31
30463;BME280;17256;43.618;25.336;2023-06-10T13:16:55;99913.19;;;31.17;40.15
30463;BME280;17256;43.618;25.336;2023-06-10T13:19:20;99909.84;;;31.15;40.10
30463;BME280;17256;43.618;25.336;2023-06-10T13:21:49;99935.44;;;31.52;40.22
30463;BME280;17256;43.618;25.336;2023-06-10T13:24:15;99946.19;;;31.59;41.74
30463;BME280;17256;43.618;25.336;2023-06-10T13:26:40;99943.91;;;31.03;42.33
30463;BME280;17256;43.618;25.336;2023-06-10T13:29:06;99869.75;;;30.02;41.79
30463;BME280;17256;43.618;25.336;2023-06-10T13:31:33;99931.81;;;30.49;43.46
30463;BME280;17256;43.618;25.336;2023-06-10T13:33:59;99909.91;;;30.37;42.30
30463;BME280;17256;43.618;25.336;2023-06-10T13:36:24;99926.44;;;30.68;43.38
30463;BME280;17256;43.618;25.336;2023-06-10T13:38:50;99874.28;;;30.48;42.39
30463;BME280;17256;43.618;25.336;2023-06-10T13:41:16;99870.28;;;30.16;44.17
30463;BME280;17256;43.618;25.336;2023-06-10T13:43:41;99883.72;;;30.40;44.37
30463;BME280;17256;43.618;25.336;2023-06-10T13:46:07;99939.72;;;30.76;44.19
30463;BME280;17256;43.618;25.336;2023-06-10T13:48:32;99927.16;;;30.44;43.54
30463;BME280;17256;43.618;25.336;2023-06-10T13:50:58;99929.09;;;30.98;44.77
30463;BME280;17256;43.618;25.336;2023-06-10T13:53:25;99935.00;;;30.92;42.43
30463;BME280;17256;43.618;25.336;2023-06-10T13:55:51;99896.50;;;30.91;42.55
30463;BME280;17256;43.618;25.336;2023-06-10T13:58:16;99964.50;;;31.37;42.17
30463;BME280;17256;43.618;25.336;2023-06-10T14:00:42;99954.00;;;31.25;41.94
30463;BME280;17256;43.618;25.336;2023-06-10T14:03:08;99793.19;;;30.44;42.20
30463;BME280;17256;43.618;25.336;2023-06-10T14:05:33;99913.91;;;31.39;41.99
30463;BME280;17256;43.618;25.336;2023-06-10T14:08:00;99915.13;;;31.26;40.07
30463;BME280;17256;43.618;25.336;2023-06-10T14:10:25;99862.34;;;30.76;38.75
30463;BME280;17256;43.618;25.336;2023-06-10T14:12:51;99904.94;;;31.25;40.07
30463;BME280;17256;43.618;25.336;2023-06-10T14:15:16;99925.03;;;30.62;38.23
30463;BME280;17256;43.618;25.336;2023-06-10T14:17:42;99936.53;;;30.90;38.83
30463;BME280;17256;43.618;25.336;2023-06-10T14:20:08;99923.94;;;31.12;38.62
30463;BME280;17256;43.618;25.336;2023-06-10T14:22:33;99855.72;;;30.72;38.27
30463;BME280;17256;43.618;25.336;2023-06-10T14:24:59;99892.97;;;31.07;38.13
30463;BME280;17256;43.618;25.336;2023-06-10T14:27:25;99884.25;;;31.36;38.44
30463;BME280;17256;43.618;25.336;2023-06-10T14:29:50;99880.59;;;31.48;39.33
30463;BME280;17256;43.618;25.336;2023-06-10T14:32:16;99911.44;;;31.49;38.42
30463;BME280;17256;43.618;25.336;2023-06-10T14:34:42;99837.91;;;31.32;38.81
30463;BME280;17256;43.618;25.336;2023-06-10T14:37:09;99922.44;;;31.75;38.32
30463;BME280;17256;43.618;25.336;2023-06-10T14:39:35;99913.56;;;31.28;38.24
30463;BME280;17256;43.618;25.336;2023-06-10T14:42:01;99929.03;;;31.55;38.38
30463;BME280;17256;43.618;25.336;2023-06-10T14:44:27;99855.50;;;31.13;38.52